createdAt,value
2023-05-20T00:02:45.072Z,15.97
2023-05-20T00:05:47.261Z,15.96
2023-05-20T00:08:49.203Z,15.89
2023-05-20T00:11:51.115Z,15.82
2023-05-20T00:14:53.923Z,15.81
2023-05-20T00:17:57.838Z,15.77
2023-05-20T00:20:59.704Z,15.70
2023-05-20T00:24:01.855Z,15.58
2023-05-20T00:27:03.846Z,15.48
2023-05-20T00:30:06.362Z,15.38
2023-05-20T00:33:08.448Z,15.33
2023-05-20T00:36:10.477Z,15.28
2023-05-20T00:39:12.491Z,15.23
2023-05-20T00:42:25.110Z,15.18
2023-05-20T00:45:27.231Z,15.13
2023-05-20T00:48:40.190Z,15.11
2023-05-20T00:51:42.006Z,15.03
2023-05-20T00:54:45.016Z,15.02
2023-05-20T00:57:46.970Z,15.01
2023-05-20T01:00:49.091Z,14.98
2023-05-20T01:03:52.176Z,14.97
2023-05-20T01:06:55.783Z,14.96
2023-05-20T01:09:57.686Z,14.93
2023-05-20T01:13:03.062Z,14.89
2023-05-20T01:16:06.090Z,14.90
2023-05-20T01:19:48.724Z,14.88
2023-05-20T01:22:54.949Z,14.84
2023-05-20T01:25:56.819Z,14.80
2023-05-20T01:29:04.307Z,14.76
2023-05-20T01:32:32.023Z,14.74
2023-05-20T01:35:35.128Z,14.70
2023-05-20T01:38:39.403Z,14.66
2023-05-20T01:41:42.136Z,14.66
2023-05-20T01:44:44.225Z,14.67
2023-05-20T01:47:46.510Z,14.66
2023-05-20T01:50:48.348Z,14.66
2023-05-20T01:53:51.890Z,14.64
2023-05-20T01:56:54.082Z,14.63
2023-05-20T01:59:57.552Z,14.63
2023-05-20T02:02:59.617Z,14.59
2023-05-20T02:06:01.653Z,14.54
2023-05-20T02:09:03.777Z,14.53
2023-05-20T02:12:06.161Z,14.49
2023-05-20T02:15:09.446Z,14.49
2023-05-20T02:18:12.738Z,14.50
2023-05-20T02:21:14.670Z,14.56
2023-05-20T02:24:17.106Z,14.59
2023-05-20T02:27:18.944Z,14.65
2023-05-20T02:30:20.789Z,14.69
2023-05-20T02:33:22.850Z,14.74
2023-05-20T02:36:24.794Z,14.77
2023-05-20T02:39:28.524Z,14.84
2023-05-20T02:42:30.642Z,14.91
2023-05-20T02:45:32.548Z,14.95
2023-05-20T02:48:35.751Z,15.00
2023-05-20T02:51:37.709Z,15.01
2023-05-20T02:54:39.595Z,15.07
2023-05-20T02:57:42.087Z,15.11
2023-05-20T03:00:46.009Z,15.13
2023-05-20T03:03:47.942Z,15.16
2023-05-20T03:06:52.121Z,15.22
2023-05-20T03:09:54.028Z,15.27
2023-05-20T03:12:55.901Z,15.33
2023-05-20T03:15:57.912Z,15.39
2023-05-20T03:18:59.714Z,15.45
2023-05-20T03:22:02.293Z,15.46
2023-05-20T03:25:06.187Z,15.50
2023-05-20T03:28:08.027Z,15.56
2023-05-20T03:31:12.262Z,15.65
2023-05-20T03:34:14.255Z,15.67
2023-05-20T03:37:16.424Z,15.78
2023-05-20T03:40:18.365Z,15.84
2023-05-20T03:43:20.468Z,16.01
2023-05-20T03:46:22.457Z,16.16
2023-05-20T03:49:24.348Z,16.38
2023-05-20T03:52:27.023Z,16.57
2023-05-20T03:55:29.206Z,16.80
2023-05-20T03:58:31.445Z,17.04
2023-05-20T04:01:33.949Z,17.34
2023-05-20T04:04:36.294Z,17.56
2023-05-20T04:07:38.242Z,17.79
2023-05-20T04:10:45.499Z,18.02
2023-05-20T04:13:47.409Z,18.26
2023-05-20T04:16:50.359Z,18.53
2023-05-20T04:19:52.436Z,18.75
2023-05-20T04:22:55.204Z,18.88
2023-05-20T04:26:02.457Z,18.92
2023-05-20T04:29:06.432Z,19.16
2023-05-20T04:32:11.242Z,19.43
2023-05-20T04:35:13.880Z,19.70
2023-05-20T04:38:18.698Z,19.97
2023-05-20T04:41:20.737Z,20.21
2023-05-20T04:44:24.791Z,20.32
2023-05-20T04:47:26.740Z,20.46
2023-05-20T04:50:29.560Z,20.63
2023-05-20T04:53:31.423Z,20.93
2023-05-20T04:56:33.751Z,21.15
2023-05-20T04:59:35.749Z,21.26
2023-05-20T05:02:38.607Z,21.32
2023-05-20T05:05:41.059Z,21.50
2023-05-20T05:08:43.693Z,21.58
2023-05-20T05:11:45.806Z,21.81
2023-05-20T05:14:47.680Z,22.02
2023-05-20T05:17:51.390Z,22.31
2023-05-20T05:21:04.057Z,22.41
2023-05-20T05:24:06.814Z,22.52
2023-05-20T05:27:08.761Z,22.61
2023-05-20T05:30:11.013Z,22.86
2023-05-20T05:33:14.362Z,22.95
2023-05-20T05:36:16.912Z,23.11
2023-05-20T05:39:19.305Z,23.32
2023-05-20T05:42:21.256Z,23.43
2023-05-20T05:45:23.185Z,23.47
2023-05-20T05:48:25.068Z,23.57
2023-05-20T05:51:29.105Z,23.68
2023-05-20T05:54:31.996Z,23.90
2023-05-20T05:57:34.194Z,24.02
2023-05-20T06:00:37.223Z,24.25
2023-05-20T06:03:39.289Z,24.39
2023-05-20T06:06:41.754Z,24.43
2023-05-20T06:09:43.704Z,24.55
2023-05-20T06:12:45.647Z,24.76
2023-05-20T06:15:49.936Z,24.63
2023-05-20T06:18:53.326Z,24.77
2023-05-20T06:21:57.053Z,24.86
2023-05-20T06:25:01.763Z,25.10
2023-05-20T06:28:05.396Z,25.30
2023-05-20T06:31:08.987Z,25.37
2023-05-20T06:34:11.406Z,25.45
2023-05-20T06:37:13.335Z,25.57
2023-05-20T06:40:15.736Z,25.61
2023-05-20T06:43:17.799Z,25.58
2023-05-20T06:46:28.817Z,25.82
2023-05-20T06:49:36.116Z,25.85
2023-05-20T06:52:38.007Z,26.02
2023-05-20T06:55:40.086Z,26.18
2023-05-20T06:58:42.563Z,26.20
2023-05-20T07:01:45.457Z,26.49
2023-05-20T07:04:47.797Z,26.70
2023-05-20T07:07:50.450Z,26.84
2023-05-20T07:10:52.389Z,26.88
2023-05-20T07:13:56.468Z,27.10
2023-05-20T07:17:01.313Z,27.35
2023-05-20T07:20:04.439Z,27.51
2023-05-20T07:23:07.251Z,27.56
2023-05-20T07:26:17.545Z,27.61
2023-05-20T07:29:19.443Z,27.55
2023-05-20T07:32:21.708Z,27.71
2023-05-20T07:35:24.614Z,27.74
2023-05-20T07:38:27.063Z,28.03
2023-05-20T07:41:35.457Z,27.92
2023-05-20T07:44:37.176Z,27.90
2023-05-20T07:47:40.176Z,27.85
2023-05-20T07:50:42.947Z,28.13
2023-05-20T07:53:45.844Z,28.13
2023-05-20T07:56:47.859Z,28.30
2023-05-20T07:59:49.652Z,28.46
2023-05-20T08:02:52.308Z,28.53
2023-05-20T08:06:01.256Z,28.60
2023-05-20T08:09:03.974Z,28.61
2023-05-20T08:12:09.225Z,28.69
2023-05-20T08:15:11.743Z,28.71
2023-05-20T08:18:15.923Z,28.84
2023-05-20T08:21:17.898Z,28.96
2023-05-20T08:24:19.796Z,29.22
2023-05-20T08:27:21.821Z,29.39
2023-05-20T08:30:23.886Z,29.35
2023-05-20T08:33:26.691Z,29.13
2023-05-20T08:36:28.733Z,29.39
2023-05-20T08:39:30.500Z,29.31
2023-05-20T08:42:32.657Z,29.47
2023-05-20T08:45:38.485Z,29.39
2023-05-20T08:48:45.956Z,29.49
2023-05-20T08:51:48.333Z,29.62
2023-05-20T08:54:52.112Z,29.46
2023-05-20T08:57:58.203Z,29.63
2023-05-20T09:01:01.051Z,29.80
2023-05-20T09:04:02.922Z,29.89
2023-05-20T09:07:05.105Z,30.18
2023-05-20T09:10:07.367Z,30.03
2023-05-20T09:13:10.418Z,29.86
2023-05-20T09:16:12.872Z,29.93
2023-05-20T09:19:14.870Z,30.03
2023-05-20T09:22:26.090Z,30.00
2023-05-20T09:25:28.487Z,30.24
2023-05-20T09:28:30.482Z,30.08
2023-05-20T09:31:34.069Z,30.34
2023-05-20T09:34:36.168Z,30.31
2023-05-20T09:37:39.462Z,30.21
2023-05-20T09:40:44.564Z,30.01
2023-05-20T09:43:46.981Z,30.28
2023-05-20T09:46:50.605Z,30.37
2023-05-20T09:49:53.792Z,30.19
2023-05-20T09:52:56.253Z,30.30
2023-05-20T09:55:58.889Z,30.42
2023-05-20T09:59:02.629Z,30.54
2023-05-20T10:02:06.746Z,30.45
2023-05-20T10:05:16.743Z,30.34
2023-05-20T10:08:37.474Z,30.34
2023-05-20T10:11:45.089Z,30.35
2023-05-20T10:15:07.482Z,30.53
2023-05-20T10:18:18.357Z,30.38
2023-05-20T10:21:24.593Z,30.38
2023-05-20T10:24:32.259Z,30.34
2023-05-20T10:27:44.694Z,30.43
2023-05-20T10:30:51.105Z,30.47
2023-05-20T10:33:53.915Z,30.52
2023-05-20T10:36:55.898Z,30.56
2023-05-20T10:40:08.669Z,30.36
2023-05-20T10:43:11.838Z,30.43
2023-05-20T10:46:31.152Z,30.36
2023-05-20T10:49:36.143Z,30.52
2023-05-20T10:52:38.156Z,30.36
2023-05-20T10:55:41.570Z,30.43
2023-05-20T10:58:44.712Z,30.62
2023-05-20T11:01:46.837Z,30.53
2023-05-20T11:04:49.692Z,30.35
2023-05-20T11:07:52.316Z,30.22
2023-05-20T11:10:56.868Z,30.32
2023-05-20T11:14:00.410Z,30.58
2023-05-20T11:17:02.318Z,30.66
2023-05-20T11:20:04.760Z,30.75
2023-05-20T11:23:12.452Z,30.71
2023-05-20T11:26:14.416Z,30.59
2023-05-20T11:29:17.601Z,30.76
2023-05-20T11:32:21.396Z,30.72
2023-05-20T11:35:25.019Z,30.55
2023-05-20T11:38:26.826Z,30.32
2023-05-20T11:41:29.010Z,30.37
2023-05-20T11:44:31.091Z,30.48
2023-05-20T11:47:33.052Z,30.62
2023-05-20T11:50:39.598Z,30.42
2023-05-20T11:53:41.952Z,30.40
2023-05-20T11:56:45.466Z,30.41
2023-05-20T11:59:47.856Z,30.51
2023-05-20T12:02:49.970Z,30.41
2023-05-20T12:05:53.000Z,30.55
2023-05-20T12:08:54.951Z,30.51
2023-05-20T12:11:56.944Z,30.79
2023-05-20T12:14:58.867Z,30.75
2023-05-20T12:18:01.615Z,30.65
2023-05-20T12:21:03.709Z,30.38
2023-05-20T12:24:07.144Z,30.29
2023-05-20T12:27:09.075Z,30.47
2023-05-20T12:30:11.326Z,30.50
2023-05-20T12:33:13.636Z,30.44
2023-05-20T12:36:15.620Z,30.29
2023-05-20T12:39:18.597Z,30.27
2023-05-20T12:42:20.636Z,30.06
2023-05-20T12:45:26.170Z,30.11
2023-05-20T12:48:28.002Z,29.87
2023-05-20T12:51:29.972Z,29.93
2023-05-20T12:54:32.182Z,29.92
2023-05-20T12:57:34.169Z,29.73
2023-05-20T13:00:36.583Z,29.71
2023-05-20T13:03:38.639Z,29.75
2023-05-20T13:06:41.123Z,29.31
2023-05-20T13:09:42.995Z,29.53
2023-05-20T13:12:47.522Z,29.40
2023-05-20T13:15:49.623Z,29.27
2023-05-20T13:18:51.767Z,29.21
2023-05-20T13:21:56.433Z,29.06
2023-05-20T13:24:58.313Z,28.79
2023-05-20T13:28:00.151Z,28.51
2023-05-20T13:31:02.988Z,28.32
2023-05-20T13:34:06.025Z,28.19
2023-05-20T13:37:07.841Z,27.91
2023-05-20T13:40:09.779Z,27.91
2023-05-20T13:43:11.621Z,27.79
2023-05-20T13:46:13.305Z,27.88
2023-05-20T13:49:15.242Z,27.72
2023-05-20T13:52:17.145Z,27.68
2023-05-20T13:55:18.942Z,27.45
2023-05-20T13:58:20.852Z,27.40
2023-05-20T14:01:22.741Z,27.21
2023-05-20T14:04:26.140Z,27.13
2023-05-20T14:07:28.241Z,27.07
2023-05-20T14:10:30.247Z,27.05
2023-05-20T14:13:32.150Z,26.99
2023-05-20T14:16:34.095Z,26.88
2023-05-20T14:19:36.146Z,26.87
2023-05-20T14:22:38.273Z,26.91
2023-05-20T14:25:40.069Z,26.81
2023-05-20T14:28:42.108Z,26.94
2023-05-20T14:31:43.961Z,26.88
2023-05-20T14:34:45.828Z,26.60
2023-05-20T14:37:47.643Z,26.61
2023-05-20T14:40:49.506Z,26.72
2023-05-20T14:43:51.526Z,26.62
2023-05-20T14:46:53.535Z,26.59
2023-05-20T14:49:56.117Z,26.54
2023-05-20T14:52:58.047Z,26.46
2023-05-20T14:55:59.815Z,26.36
2023-05-20T14:59:01.820Z,26.20
2023-05-20T15:02:05.609Z,25.85
2023-05-20T15:05:07.793Z,25.89
2023-05-20T15:08:09.770Z,25.95
2023-05-20T15:11:11.453Z,25.80
2023-05-20T15:14:13.260Z,25.82
2023-05-20T15:17:15.324Z,25.66
2023-05-20T15:20:17.152Z,25.31
2023-05-20T15:23:18.961Z,25.23
2023-05-20T15:26:21.780Z,25.15
2023-05-20T15:29:23.773Z,24.92
2023-05-20T15:32:25.745Z,24.60
2023-05-20T15:35:27.857Z,24.31
2023-05-20T15:38:29.693Z,24.14
2023-05-20T15:41:32.701Z,23.98
2023-05-20T15:44:36.165Z,23.77
2023-05-20T15:47:40.713Z,23.63
2023-05-20T15:50:42.883Z,23.52
2023-05-20T15:53:44.768Z,23.40
2023-05-20T15:56:46.706Z,23.15
2023-05-20T15:59:49.613Z,23.16
2023-05-20T16:02:51.614Z,23.01
2023-05-20T16:05:53.462Z,22.98
2023-05-20T16:08:55.304Z,22.93
2023-05-20T16:11:57.218Z,22.74
2023-05-20T16:14:59.222Z,22.66
2023-05-20T16:18:01.375Z,22.53
2023-05-20T16:21:07.258Z,22.45
2023-05-20T16:24:09.102Z,22.36
2023-05-20T16:27:11.524Z,22.28
2023-05-20T16:30:13.439Z,22.20
2023-05-20T16:33:15.451Z,22.07
2023-05-20T16:36:17.273Z,21.92
2023-05-20T16:39:19.182Z,21.80
2023-05-20T16:42:21.038Z,21.77
2023-05-20T16:45:22.893Z,21.68
2023-05-20T16:48:24.799Z,21.54
2023-05-20T16:51:26.674Z,21.38
2023-05-20T16:54:28.563Z,21.29
2023-05-20T16:57:31.235Z,21.19
2023-05-20T17:00:33.289Z,21.10
2023-05-20T17:06:40.002Z,20.91
2023-05-20T17:09:41.914Z,20.83
2023-05-20T17:12:43.755Z,20.74
2023-05-20T17:15:45.877Z,20.60
2023-05-20T17:18:48.691Z,20.53
2023-05-20T17:21:50.951Z,20.46
2023-05-20T17:24:52.764Z,20.34
2023-05-20T17:27:54.693Z,20.28
2023-05-20T17:30:56.814Z,20.21
2023-05-20T17:33:58.703Z,20.16
2023-05-20T17:37:00.757Z,20.03
2023-05-20T17:40:05.860Z,19.96
2023-05-20T17:43:07.766Z,19.91
2023-05-20T17:46:09.627Z,19.80
2023-05-20T17:49:11.497Z,19.72
2023-05-20T17:52:13.330Z,19.70
2023-05-20T17:55:15.306Z,19.57
2023-05-20T17:58:17.214Z,19.52
2023-05-20T18:01:19.039Z,19.45
2023-05-20T18:04:21.921Z,19.38
2023-05-20T18:07:23.917Z,19.32
2023-05-20T18:10:25.758Z,19.25
2023-05-20T18:13:27.640Z,19.18
2023-05-20T18:16:30.151Z,19.17
2023-05-20T18:19:33.921Z,19.13
2023-05-20T18:22:35.921Z,19.10
2023-05-20T18:25:39.933Z,19.03
2023-05-20T18:28:43.731Z,18.95
2023-05-20T18:31:45.664Z,18.90
2023-05-20T18:34:47.537Z,18.88
2023-05-20T18:37:49.496Z,18.83
2023-05-20T18:40:51.936Z,18.77
2023-05-20T18:43:53.624Z,18.69
2023-05-20T18:46:55.578Z,18.70
2023-05-20T18:49:57.375Z,18.68
2023-05-20T18:52:59.433Z,18.61
2023-05-20T18:56:03.192Z,18.56
2023-05-20T18:59:05.105Z,18.50
2023-05-20T19:02:07.060Z,18.46
2023-05-20T19:05:10.022Z,18.41
2023-05-20T19:08:12.078Z,18.31
2023-05-20T19:11:15.465Z,18.28
2023-05-20T19:14:17.408Z,18.25
2023-05-20T19:17:21.034Z,18.22
2023-05-20T19:20:23.174Z,18.17
2023-05-20T19:23:25.049Z,18.13
2023-05-20T19:26:26.917Z,18.08
2023-05-20T19:29:28.903Z,18.03
2023-05-20T19:32:30.870Z,17.92
2023-05-20T19:35:33.983Z,17.86
2023-05-20T19:38:36.081Z,17.80
2023-05-20T19:41:39.986Z,17.66
2023-05-20T19:44:41.890Z,17.62
2023-05-20T19:47:44.073Z,17.55
2023-05-20T19:50:46.052Z,17.41
2023-05-20T19:53:47.909Z,17.37
2023-05-20T19:56:49.753Z,17.25
2023-05-20T19:59:53.534Z,17.17
2023-05-20T20:02:57.054Z,17.04
2023-05-20T20:05:58.986Z,17.02
2023-05-20T20:09:01.262Z,16.94
2023-05-20T20:12:03.323Z,16.85
2023-05-20T20:15:05.560Z,16.80
2023-05-20T20:18:07.507Z,16.73
2023-05-20T20:21:11.101Z,16.74
2023-05-20T20:24:12.925Z,16.71
2023-05-20T20:27:14.852Z,16.68
2023-05-20T20:30:16.626Z,16.66
2023-05-20T20:33:19.720Z,16.59
2023-05-20T20:36:21.612Z,16.57
2023-05-20T20:39:25.199Z,16.51
2023-05-20T20:42:27.990Z,16.46
2023-05-20T20:45:29.651Z,16.35
2023-05-20T20:48:32.647Z,16.33
2023-05-20T20:51:34.424Z,16.29
2023-05-20T20:54:36.621Z,16.22
2023-05-20T20:57:39.288Z,16.17
2023-05-20T21:00:41.099Z,16.11
2023-05-20T21:03:44.688Z,16.03
2023-05-20T21:06:46.634Z,15.97
2023-05-20T21:09:53.880Z,15.94
2023-05-20T21:12:57.093Z,15.85
2023-05-20T21:15:59.017Z,15.77
2023-05-20T21:19:00.969Z,15.72
2023-05-20T21:22:03.036Z,15.64
2023-05-20T21:25:05.393Z,15.58
2023-05-20T21:28:07.270Z,15.48
2023-05-20T21:31:09.267Z,15.37
2023-05-20T21:34:11.033Z,15.35
2023-05-20T21:37:12.853Z,15.31
2023-05-20T21:40:14.693Z,15.29
2023-05-20T21:43:17.828Z,15.25
2023-05-20T21:46:19.609Z,15.17
2023-05-20T21:49:21.405Z,15.07
2023-05-20T21:52:23.186Z,15.00
2023-05-20T21:55:25.105Z,14.98
2023-05-20T21:58:26.923Z,14.91
2023-05-20T22:01:29.121Z,14.88
2023-05-20T22:04:33.419Z,14.82
2023-05-20T22:07:35.366Z,14.74
2023-05-20T22:10:37.236Z,14.70
2023-05-20T22:13:43.292Z,14.66
2023-05-20T22:16:46.612Z,14.66
2023-05-20T22:19:49.910Z,14.62
2023-05-20T22:22:51.787Z,14.59
2023-05-20T22:25:55.008Z,14.50
2023-05-20T22:28:56.910Z,14.50
2023-05-20T22:31:59.811Z,14.49
2023-05-20T22:35:01.717Z,14.41
2023-05-20T22:38:03.691Z,14.41
2023-05-20T22:41:05.618Z,14.38
2023-05-20T22:44:07.523Z,14.35
2023-05-20T22:47:09.403Z,14.35
2023-05-20T22:50:13.695Z,14.36
2023-05-20T22:53:16.536Z,14.41
2023-05-20T22:56:18.645Z,14.34
2023-05-20T22:59:21.349Z,14.39
2023-05-20T23:02:26.120Z,14.42
2023-05-20T23:05:30.093Z,14.48
2023-05-20T23:08:31.967Z,14.49
2023-05-20T23:11:33.784Z,14.47
2023-05-20T23:14:35.635Z,14.50
2023-05-20T23:17:39.551Z,14.55
2023-05-20T23:20:41.596Z,14.53
2023-05-20T23:23:43.503Z,14.49
2023-05-20T23:26:45.281Z,14.53
2023-05-20T23:29:47.452Z,14.47
2023-05-20T23:32:50.068Z,14.42
2023-05-20T23:35:52.689Z,14.45
2023-05-20T23:38:54.899Z,14.42
2023-05-20T23:41:56.724Z,14.38
2023-05-20T23:44:58.602Z,14.34
2023-05-20T23:48:01.538Z,14.31
2023-05-20T23:51:03.401Z,14.23
2023-05-20T23:54:05.189Z,14.19
2023-05-20T23:57:10.273Z,14.13
